FIN9PE EFHK-EFRO
Flight info
| Callsign | FIN9PE |
|---|---|
| Flight time | 1h 8m |
| Altitude | 36000 |
| Route | TEVRU Y75 NEPIX |
| Aircraft | A320/M-V/N |
Departure
| Time | 2026-05-06 14:46 |
|---|---|
| Airport | Helsinki Vantaa Airport (EFHK) |
Arrival
| Time | 2026-05-06 15:55 |
|---|---|
| Airport | Rovaniemi Airport (EFRO) |
| Time | Latitude | Longitude | Altitude | Speed | Heading |
|---|---|---|---|---|---|
| 2026-05-06 14:18 | 60.32008 | 24.96843 | 183 ft | 0 kts | 192° |
| 2026-05-06 14:39 | 60.32009 | 24.96843 | 183 ft | 0 kts | 192° |
| 2026-05-06 14:39 | 60.32021 | 24.96848 | 182 ft | 2 kts | 192° |
| 2026-05-06 14:40 | 60.32035 | 24.96854 | 182 ft | 2 kts | 192° |
| 2026-05-06 14:40 | 60.32047 | 24.96860 | 181 ft | 0 kts | 192° |
| 2026-05-06 14:40 | 60.32058 | 24.96862 | 181 ft | 2 kts | 160° |
| 2026-05-06 14:40 | 60.32070 | 24.96845 | 180 ft | 2 kts | 122° |
| 2026-05-06 14:41 | 60.32074 | 24.96816 | 181 ft | 2 kts | 82° |
| 2026-05-06 14:41 | 60.32070 | 24.96793 | 181 ft | 0 kts | 50° |
| 2026-05-06 14:41 | 60.32066 | 24.96783 | 182 ft | 1 kts | 45° |
| 2026-05-06 14:41 | 60.32064 | 24.96781 | 182 ft | 0 kts | 45° |
| 2026-05-06 14:42 | 60.32064 | 24.96782 | 182 ft | 0 kts | 45° |
| 2026-05-06 14:43 | 60.32075 | 24.96806 | 181 ft | 5 kts | 50° |
| 2026-05-06 14:43 | 60.32114 | 24.96875 | 179 ft | 9 kts | 10° |
| 2026-05-06 14:44 | 60.32184 | 24.96814 | 177 ft | 10 kts | 328° |
| 2026-05-06 14:44 | 60.32220 | 24.96766 | 177 ft | 5 kts | 325° |
| 2026-05-06 14:44 | 60.32257 | 24.96721 | 177 ft | 7 kts | 330° |
| 2026-05-06 14:45 | 60.32371 | 24.96581 | 180 ft | 9 kts | 311° |
| 2026-05-06 14:45 | 60.32394 | 24.96472 | 184 ft | 7 kts | 271° |
| 2026-05-06 14:45 | 60.32380 | 24.96388 | 186 ft | 6 kts | 234° |
| 2026-05-06 14:45 | 60.32371 | 24.96364 | 187 ft | 0 kts | 233° |
| 2026-05-06 14:46 | 60.32346 | 24.96299 | 188 ft | 24 kts | 231° |
| 2026-05-06 14:46 | 60.32035 | 24.95594 | 183 ft | 109 kts | 226° |
| 2026-05-06 14:46 | 60.31362 | 24.94179 | 316 ft | 162 kts | 226° |
| 2026-05-06 14:46 | 60.30624 | 24.92475 | 1090 ft | 167 kts | 234° |
| 2026-05-06 14:47 | 60.30156 | 24.90371 | 2010 ft | 169 kts | 259° |
| 2026-05-06 14:47 | 60.30143 | 24.88115 | 2800 ft | 163 kts | 279° |
| 2026-05-06 14:47 | 60.30337 | 24.85870 | 3379 ft | 170 kts | 281° |
| 2026-05-06 14:47 | 60.30794 | 24.83578 | 3792 ft | 187 kts | 310° |
| 2026-05-06 14:48 | 60.31939 | 24.82192 | 4133 ft | 211 kts | 348° |
| 2026-05-06 14:48 | 60.33476 | 24.82390 | 4594 ft | 233 kts | 14° |
| 2026-05-06 14:48 | 60.35043 | 24.83468 | 5101 ft | 251 kts | 19° |
| 2026-05-06 14:48 | 60.36702 | 24.84788 | 5703 ft | 264 kts | 20° |
| 2026-05-06 14:49 | 60.38397 | 24.86180 | 6570 ft | 267 kts | 20° |
| 2026-05-06 14:49 | 60.40114 | 24.87604 | 7434 ft | 269 kts | 20° |
| 2026-05-06 14:49 | 60.41856 | 24.88979 | 8223 ft | 273 kts | 13° |
| 2026-05-06 14:49 | 60.43731 | 24.89260 | 9000 ft | 273 kts | 353° |
| 2026-05-06 14:50 | 60.45604 | 24.88833 | 9801 ft | 276 kts | 350° |
| 2026-05-06 14:50 | 60.47516 | 24.88333 | 10549 ft | 283 kts | 350° |
| 2026-05-06 14:50 | 60.49489 | 24.87880 | 11161 ft | 292 kts | 350° |
| 2026-05-06 14:50 | 60.51499 | 24.87477 | 11865 ft | 297 kts | 351° |
| 2026-05-06 14:51 | 60.53548 | 24.87110 | 12596 ft | 300 kts | 350° |
| 2026-05-06 14:51 | 60.55629 | 24.86761 | 13324 ft | 303 kts | 349° |
| 2026-05-06 14:51 | 60.57712 | 24.86423 | 14002 ft | 305 kts | 349° |
| 2026-05-06 14:51 | 60.59831 | 24.86082 | 14669 ft | 309 kts | 348° |
| 2026-05-06 14:52 | 60.61981 | 24.85736 | 15288 ft | 313 kts | 347° |
| 2026-05-06 14:52 | 60.64155 | 24.85382 | 15892 ft | 317 kts | 347° |
| 2026-05-06 14:52 | 60.66352 | 24.85029 | 16486 ft | 321 kts | 347° |
| 2026-05-06 14:52 | 60.68567 | 24.84676 | 17081 ft | 324 kts | 346° |
| 2026-05-06 14:53 | 60.70809 | 24.84321 | 17615 ft | 328 kts | 346° |
| 2026-05-06 14:53 | 60.73079 | 24.83965 | 18140 ft | 333 kts | 346° |
| 2026-05-06 14:53 | 60.75397 | 24.83601 | 18672 ft | 336 kts | 346° |
| 2026-05-06 14:53 | 60.77741 | 24.83233 | 19211 ft | 339 kts | 345° |
| 2026-05-06 14:54 | 60.80100 | 24.82881 | 19706 ft | 345 kts | 346° |
| 2026-05-06 14:54 | 60.82511 | 24.82795 | 20220 ft | 354 kts | 351° |
| 2026-05-06 14:54 | 60.84980 | 24.83115 | 20739 ft | 361 kts | 354° |
| 2026-05-06 14:54 | 60.87467 | 24.83661 | 21237 ft | 366 kts | 355° |
| 2026-05-06 14:55 | 60.90010 | 24.84278 | 21733 ft | 370 kts | 355° |
| 2026-05-06 14:55 | 60.92551 | 24.84895 | 22198 ft | 373 kts | 355° |
| 2026-05-06 14:55 | 60.95139 | 24.85522 | 22645 ft | 377 kts | 355° |
| 2026-05-06 14:55 | 60.97741 | 24.86149 | 23089 ft | 380 kts | 355° |
| 2026-05-06 14:56 | 61.00346 | 24.86774 | 23560 ft | 383 kts | 355° |
| 2026-05-06 14:56 | 61.02998 | 24.87406 | 23989 ft | 386 kts | 354° |
| 2026-05-06 14:56 | 61.05671 | 24.88041 | 24398 ft | 390 kts | 354° |
| 2026-05-06 14:56 | 61.08362 | 24.88684 | 24800 ft | 394 kts | 354° |
| 2026-05-06 14:57 | 61.11080 | 24.89335 | 25210 ft | 397 kts | 354° |
| 2026-05-06 14:57 | 61.13815 | 24.89991 | 25605 ft | 400 kts | 354° |
| 2026-05-06 14:57 | 61.16587 | 24.90657 | 25952 ft | 405 kts | 354° |
| 2026-05-06 14:57 | 61.19361 | 24.91323 | 26334 ft | 408 kts | 354° |
| 2026-05-06 14:58 | 61.22209 | 24.92009 | 26661 ft | 412 kts | 354° |
| 2026-05-06 14:58 | 61.25051 | 24.92691 | 26989 ft | 416 kts | 354° |
| 2026-05-06 14:58 | 61.27927 | 24.93387 | 27353 ft | 419 kts | 353° |
| 2026-05-06 14:58 | 61.30797 | 24.94082 | 27691 ft | 422 kts | 353° |
| 2026-05-06 14:59 | 61.33696 | 24.94786 | 28034 ft | 425 kts | 353° |
| 2026-05-06 14:59 | 61.36617 | 24.95498 | 28370 ft | 427 kts | 353° |
| 2026-05-06 14:59 | 61.39587 | 24.96220 | 28667 ft | 431 kts | 353° |
| 2026-05-06 14:59 | 61.42558 | 24.96946 | 28951 ft | 435 kts | 353° |
| 2026-05-06 15:00 | 61.45555 | 24.97684 | 29290 ft | 437 kts | 353° |
| 2026-05-06 15:00 | 61.48581 | 24.98424 | 29572 ft | 440 kts | 353° |
| 2026-05-06 15:00 | 61.51595 | 24.99163 | 29872 ft | 442 kts | 353° |
| 2026-05-06 15:00 | 61.54672 | 24.99923 | 30165 ft | 445 kts | 353° |
| 2026-05-06 15:01 | 61.57728 | 25.00675 | 30435 ft | 448 kts | 352° |
| 2026-05-06 15:01 | 61.60833 | 25.01362 | 30669 ft | 448 kts | 350° |
| 2026-05-06 15:01 | 61.63898 | 25.01700 | 30958 ft | 443 kts | 347° |
| 2026-05-06 15:01 | 61.66944 | 25.01843 | 31309 ft | 442 kts | 346° |
| 2026-05-06 15:02 | 61.70006 | 25.01928 | 31582 ft | 443 kts | 346° |
| 2026-05-06 15:02 | 61.73093 | 25.02010 | 31922 ft | 443 kts | 346° |
| 2026-05-06 15:02 | 61.76140 | 25.02109 | 32233 ft | 444 kts | 347° |
| 2026-05-06 15:02 | 61.79217 | 25.02219 | 32534 ft | 444 kts | 347° |
| 2026-05-06 15:03 | 61.82302 | 25.02336 | 32831 ft | 444 kts | 347° |
| 2026-05-06 15:03 | 61.85355 | 25.02452 | 33083 ft | 445 kts | 347° |
| 2026-05-06 15:03 | 61.88457 | 25.02566 | 33302 ft | 447 kts | 347° |
| 2026-05-06 15:03 | 61.91522 | 25.02680 | 33575 ft | 446 kts | 348° |
| 2026-05-06 15:04 | 61.94635 | 25.02799 | 33780 ft | 446 kts | 348° |
| 2026-05-06 15:04 | 61.97721 | 25.02919 | 33974 ft | 447 kts | 348° |
| 2026-05-06 15:04 | 62.00794 | 25.03038 | 34217 ft | 446 kts | 348° |
| 2026-05-06 15:04 | 62.03867 | 25.03155 | 34374 ft | 446 kts | 348° |
| 2026-05-06 15:05 | 62.06985 | 25.03273 | 34536 ft | 447 kts | 348° |
| 2026-05-06 15:05 | 62.10077 | 25.03392 | 34687 ft | 446 kts | 349° |
| 2026-05-06 15:05 | 62.13142 | 25.03510 | 34790 ft | 447 kts | 349° |
| 2026-05-06 15:05 | 62.16248 | 25.03629 | 34920 ft | 449 kts | 349° |
| 2026-05-06 15:06 | 62.19369 | 25.03749 | 35012 ft | 450 kts | 350° |
| 2026-05-06 15:06 | 62.22503 | 25.03865 | 35151 ft | 450 kts | 350° |
| 2026-05-06 15:06 | 62.25586 | 25.03984 | 35269 ft | 451 kts | 350° |
| 2026-05-06 15:06 | 62.28740 | 25.04106 | 35395 ft | 451 kts | 351° |
| 2026-05-06 15:07 | 62.31834 | 25.04224 | 35500 ft | 451 kts | 351° |
| 2026-05-06 15:07 | 62.34959 | 25.04346 | 35606 ft | 452 kts | 351° |
| 2026-05-06 15:07 | 62.38121 | 25.04466 | 35690 ft | 454 kts | 351° |
| 2026-05-06 15:08 | 62.44426 | 25.04711 | 35852 ft | 457 kts | 351° |
| 2026-05-06 15:08 | 62.50715 | 25.04962 | 35880 ft | 457 kts | 352° |
| 2026-05-06 15:09 | 62.57045 | 25.05218 | 35884 ft | 456 kts | 352° |
| 2026-05-06 15:09 | 62.63336 | 25.05464 | 35878 ft | 456 kts | 352° |
| 2026-05-06 15:10 | 62.69672 | 25.05712 | 35868 ft | 458 kts | 352° |
| 2026-05-06 15:10 | 62.75993 | 25.05953 | 35857 ft | 457 kts | 352° |
| 2026-05-06 15:11 | 62.82318 | 25.06201 | 35860 ft | 457 kts | 352° |
| 2026-05-06 15:11 | 62.88664 | 25.06452 | 35851 ft | 458 kts | 353° |
| 2026-05-06 15:12 | 62.95005 | 25.06708 | 35837 ft | 458 kts | 353° |
| 2026-05-06 15:12 | 63.01335 | 25.06964 | 35854 ft | 458 kts | 353° |
| 2026-05-06 15:13 | 63.07632 | 25.07215 | 35845 ft | 458 kts | 353° |
| 2026-05-06 15:13 | 63.13980 | 25.07478 | 35859 ft | 459 kts | 353° |
| 2026-05-06 15:14 | 63.20340 | 25.07738 | 35854 ft | 459 kts | 353° |
| 2026-05-06 15:14 | 63.26694 | 25.08001 | 35847 ft | 459 kts | 353° |
| 2026-05-06 15:15 | 63.33033 | 25.08261 | 35848 ft | 459 kts | 353° |
| 2026-05-06 15:15 | 63.39413 | 25.08514 | 35837 ft | 459 kts | 353° |
| 2026-05-06 15:16 | 63.45771 | 25.08769 | 35851 ft | 460 kts | 354° |
| 2026-05-06 15:16 | 63.52115 | 25.09033 | 35847 ft | 460 kts | 354° |
| 2026-05-06 15:17 | 63.58473 | 25.09299 | 35866 ft | 459 kts | 354° |
| 2026-05-06 15:17 | 63.64800 | 25.09557 | 35862 ft | 459 kts | 354° |
| 2026-05-06 15:18 | 63.71179 | 25.09823 | 35872 ft | 459 kts | 354° |
| 2026-05-06 15:18 | 63.77541 | 25.10092 | 35878 ft | 459 kts | 354° |
| 2026-05-06 15:19 | 63.83871 | 25.10351 | 35865 ft | 460 kts | 354° |
| 2026-05-06 15:19 | 63.90272 | 25.10617 | 35875 ft | 460 kts | 354° |
| 2026-05-06 15:20 | 63.96605 | 25.10885 | 35872 ft | 460 kts | 355° |
| 2026-05-06 15:20 | 64.03000 | 25.11156 | 35877 ft | 460 kts | 355° |
| 2026-05-06 15:21 | 64.09351 | 25.11429 | 35882 ft | 460 kts | 355° |
| 2026-05-06 15:21 | 64.15688 | 25.11698 | 35878 ft | 459 kts | 355° |
| 2026-05-06 15:22 | 64.22066 | 25.11971 | 35870 ft | 460 kts | 355° |
| 2026-05-06 15:22 | 64.28421 | 25.12246 | 35875 ft | 461 kts | 355° |
| 2026-05-06 15:23 | 64.34804 | 25.12524 | 35871 ft | 460 kts | 355° |
| 2026-05-06 15:23 | 64.41177 | 25.12801 | 35874 ft | 460 kts | 355° |
| 2026-05-06 15:24 | 64.47514 | 25.12912 | 35874 ft | 459 kts | 354° |
| 2026-05-06 15:24 | 64.53866 | 25.12884 | 35874 ft | 460 kts | 354° |
| 2026-05-06 15:25 | 64.60230 | 25.12894 | 35870 ft | 459 kts | 354° |
| 2026-05-06 15:25 | 64.66570 | 25.12905 | 35866 ft | 459 kts | 354° |
| 2026-05-06 15:26 | 64.72936 | 25.12911 | 35847 ft | 460 kts | 354° |
| 2026-05-06 15:26 | 64.76118 | 25.12915 | 35638 ft | 459 kts | 354° |
| 2026-05-06 15:26 | 64.79292 | 25.12922 | 35423 ft | 457 kts | 354° |
| 2026-05-06 15:26 | 64.82429 | 25.12915 | 35207 ft | 454 kts | 354° |
| 2026-05-06 15:27 | 64.85570 | 25.12918 | 34985 ft | 452 kts | 354° |
| 2026-05-06 15:27 | 64.88702 | 25.12919 | 34766 ft | 450 kts | 354° |
| 2026-05-06 15:27 | 64.91802 | 25.12917 | 34553 ft | 449 kts | 354° |
| 2026-05-06 15:27 | 64.94902 | 25.12920 | 34258 ft | 450 kts | 354° |
| 2026-05-06 15:28 | 64.98010 | 25.12920 | 33832 ft | 449 kts | 354° |
| 2026-05-06 15:28 | 65.01108 | 25.12924 | 33485 ft | 445 kts | 354° |
| 2026-05-06 15:28 | 65.04168 | 25.12918 | 33090 ft | 443 kts | 354° |
| 2026-05-06 15:28 | 65.07238 | 25.12920 | 32675 ft | 442 kts | 354° |
| 2026-05-06 15:29 | 65.10287 | 25.12922 | 32178 ft | 443 kts | 354° |
| 2026-05-06 15:29 | 65.13333 | 25.12922 | 31703 ft | 443 kts | 354° |
| 2026-05-06 15:29 | 65.16387 | 25.12919 | 31234 ft | 442 kts | 354° |
| 2026-05-06 15:29 | 65.19468 | 25.12903 | 30761 ft | 442 kts | 354° |
| 2026-05-06 15:30 | 65.22521 | 25.12884 | 30262 ft | 443 kts | 354° |
| 2026-05-06 15:30 | 65.25560 | 25.12861 | 29882 ft | 438 kts | 355° |
| 2026-05-06 15:30 | 65.28574 | 25.12849 | 29574 ft | 432 kts | 355° |
| 2026-05-06 15:30 | 65.31534 | 25.12840 | 29215 ft | 427 kts | 355° |
| 2026-05-06 15:31 | 65.34470 | 25.12828 | 28757 ft | 422 kts | 356° |
| 2026-05-06 15:31 | 65.37378 | 25.12812 | 28167 ft | 418 kts | 356° |
| 2026-05-06 15:31 | 65.40243 | 25.12795 | 27565 ft | 413 kts | 357° |
| 2026-05-06 15:32 | 65.45798 | 25.12762 | 26487 ft | 397 kts | 358° |
| 2026-05-06 15:32 | 65.48548 | 25.12747 | 25995 ft | 395 kts | 358° |
| 2026-05-06 15:32 | 65.51263 | 25.12731 | 25516 ft | 394 kts | 358° |
| 2026-05-06 15:32 | 65.53986 | 25.12715 | 24979 ft | 392 kts | 358° |
| 2026-05-06 15:33 | 65.56686 | 25.12706 | 24474 ft | 387 kts | 359° |
| 2026-05-06 15:33 | 65.59328 | 25.12697 | 24021 ft | 382 kts | 359° |
| 2026-05-06 15:33 | 65.61985 | 25.12686 | 23580 ft | 377 kts | 359° |
| 2026-05-06 15:33 | 65.64555 | 25.12676 | 23157 ft | 372 kts | 359° |
| 2026-05-06 15:34 | 65.67094 | 25.12664 | 22739 ft | 367 kts | 358° |
| 2026-05-06 15:34 | 65.69649 | 25.12652 | 22323 ft | 362 kts | 358° |
| 2026-05-06 15:34 | 65.72135 | 25.12639 | 21913 ft | 358 kts | 358° |
| 2026-05-06 15:34 | 65.74577 | 25.12624 | 21513 ft | 354 kts | 358° |
| 2026-05-06 15:35 | 65.77020 | 25.12611 | 21099 ft | 351 kts | 358° |
| 2026-05-06 15:35 | 65.79428 | 25.12596 | 20700 ft | 347 kts | 358° |
| 2026-05-06 15:35 | 65.81824 | 25.12583 | 20295 ft | 344 kts | 358° |
| 2026-05-06 15:35 | 65.84193 | 25.12570 | 19895 ft | 341 kts | 358° |
| 2026-05-06 15:36 | 65.86543 | 25.12558 | 19486 ft | 338 kts | 358° |
| 2026-05-06 15:36 | 65.88868 | 25.12544 | 19099 ft | 335 kts | 358° |
| 2026-05-06 15:36 | 65.91185 | 25.12531 | 18717 ft | 333 kts | 358° |
| 2026-05-06 15:36 | 65.93491 | 25.12517 | 18320 ft | 331 kts | 358° |
| 2026-05-06 15:37 | 65.95756 | 25.12504 | 17928 ft | 328 kts | 358° |
| 2026-05-06 15:37 | 65.98020 | 25.12491 | 17545 ft | 326 kts | 358° |
| 2026-05-06 15:37 | 66.00294 | 25.12477 | 17167 ft | 324 kts | 358° |
| 2026-05-06 15:37 | 66.02525 | 25.12465 | 16795 ft | 322 kts | 359° |
| 2026-05-06 15:38 | 66.04727 | 25.12454 | 16427 ft | 320 kts | 358° |
| 2026-05-06 15:38 | 66.06945 | 25.12443 | 16053 ft | 318 kts | 359° |
| 2026-05-06 15:38 | 66.09135 | 25.12463 | 15678 ft | 316 kts | 1° |
| 2026-05-06 15:38 | 66.11314 | 25.13012 | 15304 ft | 315 kts | 9° |
| 2026-05-06 15:39 | 66.13429 | 25.14235 | 14902 ft | 314 kts | 14° |
| 2026-05-06 15:39 | 66.15505 | 25.15738 | 14528 ft | 312 kts | 15° |
| 2026-05-06 15:39 | 66.17570 | 25.17285 | 14151 ft | 311 kts | 16° |
| 2026-05-06 15:39 | 66.19631 | 25.18829 | 13773 ft | 309 kts | 15° |
| 2026-05-06 15:40 | 66.21681 | 25.20359 | 13393 ft | 307 kts | 15° |
| 2026-05-06 15:40 | 66.23703 | 25.21862 | 13018 ft | 305 kts | 15° |
| 2026-05-06 15:40 | 66.25731 | 25.23366 | 12642 ft | 304 kts | 15° |
| 2026-05-06 15:40 | 66.27743 | 25.24858 | 12268 ft | 302 kts | 15° |
| 2026-05-06 15:41 | 66.29715 | 25.26321 | 11901 ft | 300 kts | 15° |
| 2026-05-06 15:41 | 66.31706 | 25.27801 | 11528 ft | 298 kts | 15° |
| 2026-05-06 15:41 | 66.33675 | 25.29265 | 11162 ft | 296 kts | 15° |
| 2026-05-06 15:41 | 66.35621 | 25.30716 | 10803 ft | 294 kts | 15° |
| 2026-05-06 15:42 | 66.37574 | 25.32173 | 10439 ft | 292 kts | 15° |
| 2026-05-06 15:42 | 66.39484 | 25.33601 | 10084 ft | 290 kts | 15° |
| 2026-05-06 15:42 | 66.41412 | 25.35043 | 9800 ft | 284 kts | 15° |
| 2026-05-06 15:42 | 66.43260 | 25.36429 | 9623 ft | 276 kts | 15° |
| 2026-05-06 15:43 | 66.45081 | 25.37796 | 9284 ft | 273 kts | 15° |
| 2026-05-06 15:43 | 66.46857 | 25.39416 | 8951 ft | 271 kts | 24° |
| 2026-05-06 15:43 | 66.48475 | 25.41777 | 8617 ft | 270 kts | 34° |
| 2026-05-06 15:43 | 66.49978 | 25.44522 | 8298 ft | 268 kts | 36° |
| 2026-05-06 15:44 | 66.51467 | 25.47353 | 7969 ft | 265 kts | 36° |
| 2026-05-06 15:44 | 66.52911 | 25.50104 | 7652 ft | 263 kts | 36° |
| 2026-05-06 15:44 | 66.54372 | 25.52876 | 7329 ft | 262 kts | 36° |
| 2026-05-06 15:44 | 66.55814 | 25.55601 | 7018 ft | 260 kts | 36° |
| 2026-05-06 15:45 | 66.57243 | 25.58299 | 6698 ft | 258 kts | 36° |
| 2026-05-06 15:45 | 66.58669 | 25.60994 | 6387 ft | 256 kts | 36° |
| 2026-05-06 15:45 | 66.60094 | 25.63687 | 6063 ft | 255 kts | 36° |
| 2026-05-06 15:45 | 66.61488 | 25.66335 | 5756 ft | 254 kts | 37° |
| 2026-05-06 15:46 | 66.62883 | 25.68991 | 5443 ft | 253 kts | 37° |
| 2026-05-06 15:46 | 66.64281 | 25.71655 | 5121 ft | 251 kts | 37° |
| 2026-05-06 15:46 | 66.65662 | 25.74291 | 4813 ft | 250 kts | 37° |
| 2026-05-06 15:46 | 66.67039 | 25.76925 | 4502 ft | 249 kts | 37° |
| 2026-05-06 15:47 | 66.68402 | 25.79540 | 4193 ft | 248 kts | 37° |
| 2026-05-06 15:47 | 66.69762 | 25.82150 | 3947 ft | 243 kts | 37° |
| 2026-05-06 15:47 | 66.71070 | 25.84666 | 3925 ft | 229 kts | 37° |
| 2026-05-06 15:47 | 66.72295 | 25.87024 | 3853 ft | 218 kts | 37° |
| 2026-05-06 15:48 | 66.73474 | 25.89299 | 3733 ft | 210 kts | 37° |
| 2026-05-06 15:48 | 66.74623 | 25.91547 | 3546 ft | 205 kts | 41° |
| 2026-05-06 15:48 | 66.75530 | 25.94207 | 3343 ft | 201 kts | 64° |
| 2026-05-06 15:48 | 66.75780 | 25.97602 | 3130 ft | 196 kts | 102° |
| 2026-05-06 15:49 | 66.75113 | 26.00401 | 3009 ft | 186 kts | 140° |
| 2026-05-06 15:49 | 66.74108 | 26.02225 | 2969 ft | 172 kts | 145° |
| 2026-05-06 15:49 | 66.73135 | 26.03928 | 3076 ft | 169 kts | 139° |
| 2026-05-06 15:49 | 66.72311 | 26.06056 | 3061 ft | 169 kts | 131° |
| 2026-05-06 15:50 | 66.71513 | 26.08151 | 2872 ft | 164 kts | 136° |
| 2026-05-06 15:50 | 66.70502 | 26.09355 | 2596 ft | 162 kts | 175° |
| 2026-05-06 15:50 | 66.69465 | 26.08750 | 2435 ft | 152 kts | 215° |
| 2026-05-06 15:50 | 66.68730 | 26.06879 | 2323 ft | 149 kts | 229° |
| 2026-05-06 15:51 | 66.68027 | 26.04978 | 2368 ft | 149 kts | 223° |
| 2026-05-06 15:51 | 66.67282 | 26.03173 | 2490 ft | 149 kts | 223° |
| 2026-05-06 15:51 | 66.66486 | 26.01514 | 2705 ft | 150 kts | 215° |
| 2026-05-06 15:51 | 66.65650 | 25.99984 | 2689 ft | 150 kts | 217° |
| 2026-05-06 15:52 | 66.64816 | 25.98487 | 2461 ft | 143 kts | 214° |
| 2026-05-06 15:52 | 66.64010 | 25.97124 | 2158 ft | 136 kts | 214° |
| 2026-05-06 15:52 | 66.63256 | 25.95801 | 1892 ft | 132 kts | 215° |
| 2026-05-06 15:52 | 66.62530 | 25.94444 | 1682 ft | 131 kts | 217° |
| 2026-05-06 15:53 | 66.61812 | 25.93085 | 1531 ft | 130 kts | 216° |
| 2026-05-06 15:53 | 66.61070 | 25.91740 | 1389 ft | 130 kts | 216° |
| 2026-05-06 15:53 | 66.60352 | 25.90420 | 1266 ft | 130 kts | 217° |
| 2026-05-06 15:53 | 66.59634 | 25.89008 | 1119 ft | 130 kts | 219° |
| 2026-05-06 15:54 | 66.58924 | 25.87645 | 979 ft | 129 kts | 217° |
| 2026-05-06 15:54 | 66.58202 | 25.86309 | 824 ft | 129 kts | 217° |
| 2026-05-06 15:54 | 66.57491 | 25.84960 | 646 ft | 127 kts | 217° |
| 2026-05-06 15:54 | 66.56840 | 25.83713 | 645 ft | 98 kts | 219° |
| 2026-05-06 15:55 | 66.56452 | 25.82961 | 655 ft | 39 kts | 212° |
| 2026-05-06 15:55 | 66.56271 | 25.82640 | 651 ft | 18 kts | 215° |
| 2026-05-06 15:55 | 66.56160 | 25.82428 | 645 ft | 22 kts | 219° |
| 2026-05-06 15:55 | 66.56033 | 25.82250 | 638 ft | 16 kts | 150° |
| 2026-05-06 15:56 | 66.55971 | 25.82436 | 640 ft | 11 kts | 125° |
| 2026-05-06 15:56 | 66.55913 | 25.82523 | 641 ft | 5 kts | 198° |
| 2026-05-06 15:56 | 66.55873 | 25.82510 | 640 ft | 7 kts | 162° |
| 2026-05-06 15:56 | 66.55846 | 25.82581 | 641 ft | 4 kts | 129° |
| 2026-05-06 15:57 | 66.55831 | 25.82613 | 641 ft | 0 kts | 142° |
| 2026-05-06 15:57 | 66.55830 | 25.82615 | 641 ft | 0 kts | 142° |